Detalii statie RANDUNICA PREST ANDRID [00001984]

Toti senzorii

Date Temperatura solului [C]Precipitatii [mm]Voltaj baterie [mV]Leaf Wetness [Min]HC Air temperature [C]HC Relative humidity [%]Punctul de roua [C]
medieminmaxsumaultimatimpmedieminmaxmediemediemin
2017-12-10 22:00:00 2.8 2.7 3 0 6972 -0.94 -1.1 -0.75 0 0 0
2017-12-10 23:00:00 2.8 2.8 2.9 0 6952 0.46 -0.68 1.04 0 0 0
2017-12-11 00:00:00 2.7 2.7 2.9 0 6962 1.48 1.05 1.78 0 0 0
2017-12-11 01:00:00 2.7 2.5 2.9 0 6952 1.83 1.63 2.17 0 0 0
2017-12-11 02:00:00 2.6 2.5 2.8 0 6952 2.45 2.17 2.66 0 0 0
2017-12-11 03:00:00 2.6 2.6 2.8 0 6932 2.57 2.38 2.8 0 0 0
2017-12-11 04:00:00 2.6 2.5 2.8 0 6942 1.69 1.38 2.29 0 0 0
2017-12-11 05:00:00 2.6 2.5 2.8 1.2 6932 2.3 1.95 2.64 0 0 0
2017-12-11 06:00:00 2.6 2.6 2.7 1.6 6914 3.09 2.77 3.3 0 0 0
2017-12-11 07:00:00 2.7 2.6 2.8 0.8 6922 3.06 1.97 3.75 0 0 0
2017-12-11 08:00:00 2.7 2.6 2.9 1 6904 2.55 2.18 3.42 0 0 0
2017-12-11 09:00:00 2.8 2.8 2.9 0.8 6904 1.88 1.76 2.07 0 0 0
2017-12-11 10:00:00 2.8 2.8 3 0.6 6914 2.63 2.15 5.01 0 0 0
2017-12-11 11:00:00 2.9 2.8 3.1 0.8 6942 7.03 5.41 7.93 0 0 0
2017-12-11 12:00:00 3 3 3.2 0.2 7030 8.64 7.93 9.3 0 0 0
2017-12-11 13:00:00 3.3 3.1 3.5 0 7098 10.1 9.45 10.58 0 0 0
2017-12-11 14:00:00 3.6 3.5 3.9 0 7088 10.57 10.38 10.82 0 0 0
2017-12-11 15:00:00 3.9 3.8 4.1 0 7050 10.56 10.45 10.64 0 0 0
2017-12-11 16:00:00 4.2 4.1 4.3 0 6982 10.89 10.6 11.18 0 0 0
2017-12-11 17:00:00 4.3 4.3 4.5 0 6962 11.19 10.98 11.51 0 0 0
2017-12-11 18:00:00 4.5 4.4 4.6 0 6942 11.36 10.93 11.63 0 0 0
2017-12-11 19:00:00 4.6 4.4 4.8 0 6932 11.67 11.45 12.03 0 0 0
2017-12-11 20:00:00 4.7 4.7 4.8 0 6914 11.88 11.55 12.21 0 0 0
2017-12-11 21:00:00 4.8 4.8 4.9 0 6904 12 11.72 12.17 0 0 0
2017-12-11 22:00:00 4.9 4.9 5.1 0 6884 12.05 11.92 12.23 0 0 0
2017-12-11 23:00:00 5 5 5.2 0 6884 12.29 11.99 12.6 0 0 0
2017-12-12 00:00:00 5.1 5 5.2 0 6864 12.35 12.08 12.54 0 0 0
2017-12-12 01:00:00 5.1 5.1 5.3 0 6854 12.3 12.08 12.56 0 0 0
2017-12-12 02:00:00 5.2 5.1 5.3 0 6864 12.05 11.86 12.39 0 0 0
2017-12-12 03:00:00 5.2 5.2 5.3 0 6854 11.78 11.67 11.9 0 0 0
2017-12-12 04:00:00 5.3 5.2 5.5 0 6864 12.12 11.9 12.34 0 0 0
2017-12-12 05:00:00 5.3 5.1 5.4 0 6844 12.48 12.26 12.99 0 0 0
2017-12-12 06:00:00 5.3 5.2 5.5 0 6854 13.04 12.87 13.34 0 0 0
2017-12-12 07:00:00 5.4 5.3 5.5 0 6844 13.14 12.98 13.4 0 0 0
2017-12-12 08:00:00 5.5 5.5 5.5 0 6844 13.21 12.71 13.5 0 0 0
2017-12-12 09:00:00 5.5 5.5 5.7 0 6834 13.42 13.13 14.03 0 0 0
2017-12-12 10:00:00 5.6 5.6 5.8 0 6874 14.08 13.78 14.32 0 0 0
2017-12-12 11:00:00 5.7 5.6 5.9 0 6932 14.31 14.02 14.75 0 0 0
2017-12-12 12:00:00 6 5.9 6.2 0 7030 15.03 14.63 15.59 0 0 0
2017-12-12 13:00:00 6.2 6.1 6.4 0 7108 15.99 15.59 16.28 0 0 0
2017-12-12 14:00:00 6.4 6.3 6.7 0 7108 16.06 15.98 16.32 0 0 0
2017-12-12 15:00:00 6.7 6.6 6.9 0 7108 16.1 16 16.32 0 0 0
2017-12-12 16:00:00 6.9 6.8 7 0 7000 15.74 15.33 16.27 0 0 0
2017-12-12 17:00:00 7 6.8 7.1 0 6952 15.63 15.49 16.01 0 0 0
2017-12-12 18:00:00 7.1 7 7.2 0 6952 15.42 15.15 15.64 0 0 0
2017-12-12 19:00:00 7.2 7.2 7.3 0 6942 14.49 13.34 15.37 0 0 0
2017-12-12 20:00:00 7.1 7 7.3 0 6922 12.46 11.83 13.2 0 0 0
2017-12-12 21:00:00 7.2 7.1 7.3 0 6914 11.27 10.9 11.71 0 0 0